Saint-Jude, Canada
Current Conditions -  °F | °C
As of 3:00 PM on Thursday 30 Oct 2014 (Local Time) from CYHU Reporting Station
Overcast Overcast  
Wind Chill: 43°   Ceiling: 3700
Heat Index: 48°   Visibility: 9mi
Dew Point: 34°   Wind: 12mph
Humidity: 57%   Direction: 230°SW
Pressure: 29.95"   Gusts: 18mph
Location:  45.77°N, 72.98°W
Report Text: CYHU 301900Z AUTO 23010G16KT 9SM BKN037 OVC050 09/01 A2995 RMK SLP143
Loading
Personal Weather Stations






























Interactive Weather Map
Tropical Storm Tracking
New forecast layout! Learn more

10-Day Weather Forecast

Advertisements
Track Severe Weather on mobile